Linn Creek, MO (65052)

12:25 CDT le 16 septembre 2014 (GMT -0500)
Near Big Surf | Change Station
CLOSE
Current Station
Stations météorologiques personnelles
Location: Linn Creek, MO
Altitude: 902 ft
Stations météo à proximité

Alt. 902 ft 38.07 °N, 92.69 °W | Updated 4 minutes ago

Couvert
Couvert
63.5 ° F
Paraît 63.5 ° F
N
0.0
Vent Variable Vent de SO
Gusts 2.0 mph

Aujourd'hui
Haut(e) -- | Bas -- ° F
--% Risque de précip.
Hier
Haut(e) -- | Bas -- ° F
Precip. -- pouce
6:53 AM 7:17 PM
Dernier quartier, 44% visible
Pression 30.20 pouce
Visibilité 10.0 Miles terrestres
Nuages Couvert 1000 ft
Point de rosée 58 ° F
Humidité 82%
Précipitations 0.00 pouce
Profondeur de la couche neigeuse Non disponible.
UV 2 sur 12
Pollen 6.70 sur 12
Qualité de l'air Non disponible.
Flu Activity Non disponible.
METAR KH21 161715Z AUTO 07005KT 10SM OVC010 17/13 A3020 RMK AO2

More Conditions Fewer Conditions

Pression 30.20 pouce
Visibilité 10.0 Miles terrestres
Nuages Couvert 1000 ft
Point de rosée 58 ° F
Humidité 82%
Précipitations 0.00 pouce
Profondeur de la couche neigeuse Non disponible.
UV 2 sur 12
Pollen 6.70 sur 12
Qualité de l'air Non disponible.
Flu Activity Non disponible.
METAR KH21 161715Z AUTO 07005KT 10SM OVC010 17/13 A3020 RMK AO2

More Conditions Fewer Conditions

10-Day Weather Forecast

Almanac

Astronomie

Sep. 16, 2014 Lever Coucher
Temps réel 06:53 CDT 19:17 CDT
Crépuscule civil 06:27 CDT 19:43 CDT
Crépuscule nautique 05:56 CDT 20:14 CDT
Crépuscule astronomique 05:24 CDT 20:46 CDT
Lune 00:07 CDT 14:37 CDT
Durée de lumière visible 13h 16m
Longueur du jour
12h 23m
Tomorrow will be 2m 25s shorter.
Dernier quartier, 44% of the Moon is Illuminated
Aujourd'hui
Dernier quartier
Sep 24
Nouveau
Oct 1
Premier quartier
Oct 8
Pleine lune
Oct 15
Dernier quartier

Extrêmes aujourd'hui

State Highs State Lows

Community

WunderPhotos

Upload Photos

1,753,838 Photos téléchargées !

Nearby

Épaisseur de neige

Station Depth Altitude
Pas de nouvelles chutes de neige

Activité sismique

Ville Distance Mag. Time & Date
No recent earthquake activity has been reported nearby.
Minimum magnitude displayed is 2.5.

Températures des eaux côtières

Lieu Température
Aucun rapport de station

Stations météo à proximité